Parksville, Canada
Current Conditions -  °F | °C
As of 7:11 PM on Monday 26 Jan 2015 (Local Time) from CYCD Reporting Station
Moderate Fog Moderate Fog  
Wind Chill: 43°   Ceiling: Unl
Heat Index: 43°   Visibility: 0.25mi
Dew Point: 43°   Wind: 3mph
Humidity: 100%   Direction: 230°SW
Pressure: 29.9"   Gusts: NA
Location:  49.32°N, 124.31°W
Report Text: CYCD 270311Z 23003KT 140V280 1/4SM FG SKC 06/06 A2990 RMK FG5 SLP127
Loading
Personal Weather Stations






























Interactive Weather Map New forecast layout! Learn more

10-Day Weather Forecast

Advertisements
Track Severe Weather on mobile